Time;durP1;ratioP1;P1;durP2;ratioP2;P2;SDS_P1;SDS_P2;PMS_P1;PMS_P2;Temp;Humidity;BMP_temperature;BMP_pressure;BME280_temperature;BME280_humidity;BME280_pressure;Samples;Min_cycle;Max_cycle;Signal;HPM_P1;HPM_P2
2022/07/18 00:03:33;;;;;;;1.55;0.98;;;21.20;98.80;;;;;;13085283;22;20216;-87
2022/07/18 00:08:35;;;;;;;2.17;1.13;;;21.20;98.80;;;;;;13129400;22;20251;-88
2022/07/18 00:13:38;;;;;;;3.30;1.33;;;21.20;98.80;;;;;;13085610;22;20165;-88
2022/07/18 00:18:41;;;;;;;1.50;1.15;;;21.20;98.80;;;;;;13111978;22;20248;-87
2022/07/18 00:23:44;;;;;;;1.77;1.15;;;21.20;98.80;;;;;;13129320;22;20201;-87
2022/07/18 00:28:47;;;;;;;2.53;1.17;;;21.20;99.00;;;;;;13111776;22;20229;-88
2022/07/18 00:33:49;;;;;;;2.58;1.50;;;21.20;98.80;;;;;;13083465;22;20280;-88
2022/07/18 00:38:52;;;;;;;1.58;1.20;;;21.20;98.90;;;;;;13128616;22;20216;-88
2022/07/18 00:43:57;;;;;;;1.60;1.45;;;21.20;98.90;;;;;;13111051;22;20208;-88
2022/07/18 00:48:59;;;;;;;1.42;0.88;;;21.20;98.90;;;;;;13108887;22;20276;-88
2022/07/18 00:54:03;;;;;;;1.25;1.15;;;21.20;98.90;;;;;;13130188;22;20193;-88
2022/07/18 00:59:05;;;;;;;1.38;0.85;;;21.20;98.90;;;;;;13085048;22;20205;-88
2022/07/18 01:04:13;;;;;;;1.98;1.23;;;21.20;98.90;;;;;;13083627;22;20241;-88
2022/07/18 01:09:17;;;;;;;3.38;1.80;;;21.10;99.00;;;;;;13129768;22;20260;-88
2022/07/18 01:14:20;;;;;;;1.60;1.15;;;21.10;99.00;;;;;;13083744;22;20236;-88
2022/07/18 01:19:22;;;;;;;1.40;1.30;;;21.10;99.00;;;;;;13082983;22;20224;-88
2022/07/18 01:24:25;;;;;;;1.08;0.98;;;21.10;99.10;;;;;;13110017;22;20235;-88
2022/07/18 01:29:28;;;;;;;1.92;1.40;;;21.10;99.10;;;;;;13052187;22;20185;-86
2022/07/18 01:34:31;;;;;;;1.50;1.33;;;21.10;99.00;;;;;;13032123;22;20234;-88
2022/07/18 01:39:35;;;;;;;1.63;1.10;;;21.10;99.10;;;;;;13058201;22;20220;-88
2022/07/18 01:44:38;;;;;;;2.15;1.40;;;21.10;99.10;;;;;;13055777;22;20169;-88
2022/07/18 01:49:41;;;;;;;1.40;1.20;;;21.10;99.20;;;;;;13055371;22;20211;-88
2022/07/18 01:54:43;;;;;;;1.20;1.10;;;21.10;99.20;;;;;;13056140;22;20165;-88
2022/07/18 01:59:46;;;;;;;2.05;1.23;;;21.10;99.20;;;;;;13053390;22;20498;-88
2022/07/18 02:05:00;;;;;;;1.27;1.13;;;21.10;99.20;;;;;;13025433;22;20235;-87
2022/07/18 02:10:10;;;;;;;1.45;1.25;;;21.10;99.20;;;;;;13071471;22;20524;-88
2022/07/18 02:15:15;;;;;;;2.03;1.35;;;21.10;99.20;;;;;;13071214;22;20502;-88
2022/07/18 02:20:17;;;;;;;1.80;1.13;;;21.10;99.20;;;;;;13066926;22;20219;-88
2022/07/18 02:25:20;;;;;;;1.30;1.20;;;21.10;99.20;;;;;;13053624;22;20165;-88
2022/07/18 02:30:22;;;;;;;1.25;1.15;;;21.00;99.20;;;;;;13052773;22;20258;-88
2022/07/18 02:35:25;;;;;;;1.75;1.05;;;21.00;99.20;;;;;;13066672;22;20176;-88
2022/07/18 02:40:28;;;;;;;1.75;1.35;;;21.00;99.20;;;;;;13052421;22;20681;-88
2022/07/18 02:45:31;;;;;;;1.55;1.45;;;21.00;99.20;;;;;;13052755;22;20165;-88
2022/07/18 02:50:33;;;;;;;1.83;1.17;;;21.00;99.30;;;;;;13052048;22;20188;-87
2022/07/18 02:55:36;;;;;;;2.42;1.77;;;21.00;99.20;;;;;;13025092;22;20177;-88
2022/07/18 03:00:39;;;;;;;2.08;1.42;;;21.00;99.20;;;;;;13023258;22;20574;-88
2022/07/18 03:05:41;;;;;;;1.27;1.08;;;21.00;99.20;;;;;;13024821;22;20520;-88
2022/07/18 03:10:44;;;;;;;1.77;1.00;;;21.00;99.20;;;;;;13052300;22;20192;-88
2022/07/18 03:15:46;;;;;;;1.98;1.58;;;21.00;99.10;;;;;;13021139;22;20231;-88
2022/07/18 03:20:49;;;;;;;1.45;1.35;;;21.00;99.10;;;;;;13020232;22;20505;-88
2022/07/18 03:25:51;;;;;;;1.75;1.30;;;21.00;99.00;;;;;;13041583;22;20173;-87
2022/07/18 03:30:54;;;;;;;1.70;1.05;;;21.10;99.00;;;;;;13042758;22;20196;-87
2022/07/18 03:35:57;;;;;;;1.77;1.45;;;21.10;99.00;;;;;;13017110;22;20547;-88
2022/07/18 03:40:59;;;;;;;1.83;1.50;;;21.10;98.90;;;;;;13045377;22;20169;-88
2022/07/18 03:46:02;;;;;;;1.33;1.23;;;21.10;98.90;;;;;;13044671;22;20540;-87
2022/07/18 03:51:05;;;;;;;2.30;1.40;;;21.10;98.90;;;;;;13017084;22;20185;-89
2022/07/18 03:56:08;;;;;;;2.05;1.85;;;21.10;98.90;;;;;;13017222;22;20231;-87
2022/07/18 04:01:11;;;;;;;1.90;1.30;;;21.10;98.90;;;;;;13045252;22;20481;-87
2022/07/18 04:06:14;;;;;;;1.20;1.10;;;21.10;98.80;;;;;;13054869;22;20486;-87
2022/07/18 04:11:16;;;;;;;1.58;1.35;;;21.10;98.80;;;;;;13017543;22;20243;-88
2022/07/18 04:16:24;;;;;;;1.75;1.30;;;21.20;98.70;;;;;;13036928;22;20215;-88
2022/07/18 04:21:26;;;;;;;1.88;1.30;;;21.20;98.60;;;;;;13054354;22;20219;-87
2022/07/18 04:26:29;;;;;;;1.60;1.50;;;21.20;98.50;;;;;;13047329;22;20168;-87
2022/07/18 04:31:32;;;;;;;2.00;1.42;;;21.20;98.40;;;;;;13048263;22;20235;-87
2022/07/18 04:36:35;;;;;;;1.42;1.10;;;21.30;98.20;;;;;;13019798;22;20231;-88
2022/07/18 04:41:37;;;;;;;2.55;1.40;;;21.40;98.00;;;;;;13048498;22;20219;-87
2022/07/18 04:46:40;;;;;;;1.88;1.40;;;21.40;98.00;;;;;;13048473;22;20169;-88
2022/07/18 04:51:43;;;;;;;1.52;1.20;;;21.30;98.10;;;;;;13019826;22;20193;-88
2022/07/18 04:56:46;;;;;;;1.75;1.27;;;21.30;98.20;;;;;;13019996;22;20177;-88
2022/07/18 05:01:48;;;;;;;1.50;1.30;;;21.40;98.00;;;;;;13047267;22;20165;-88
2022/07/18 05:06:51;;;;;;;2.25;1.50;;;21.50;97.80;;;;;;13019995;22;20245;-87
2022/07/18 05:11:53;;;;;;;2.13;1.17;;;21.60;97.60;;;;;;13020987;22;20188;-88
2022/07/18 05:16:56;;;;;;;1.63;1.40;;;21.60;97.60;;;;;;13039363;22;20161;-87
2022/07/18 05:21:58;;;;;;;1.23;1.13;;;21.50;97.60;;;;;;13020019;22;20513;-87
2022/07/18 05:27:01;;;;;;;1.63;1.27;;;21.60;97.50;;;;;;13020928;22;20165;-87
2022/07/18 05:32:04;;;;;;;2.25;1.48;;;21.70;97.30;;;;;;13048366;22;20246;-88
2022/07/18 05:37:07;;;;;;;2.08;1.48;;;21.70;97.20;;;;;;12994293;22;20703;-88
2022/07/18 05:42:09;;;;;;;1.77;1.30;;;21.80;97.00;;;;;;13018729;22;20181;-88
2022/07/18 05:47:13;;;;;;;1.38;1.27;;;21.80;96.90;;;;;;13018148;22;20169;-88
2022/07/18 05:52:15;;;;;;;1.20;0.98;;;21.80;96.80;;;;;;13017537;22;20189;-87
2022/07/18 05:57:18;;;;;;;1.92;1.35;;;21.80;96.80;;;;;;13046397;22;20157;-88
2022/07/18 06:02:20;;;;;;;2.25;1.67;;;21.80;96.90;;;;;;13046707;22;20203;-88
2022/07/18 06:07:23;;;;;;;1.52;1.20;;;21.80;96.90;;;;;;13046775;22;20199;-87
2022/07/18 06:12:30;;;;;;;2.17;1.40;;;21.80;96.90;;;;;;12993891;22;20247;-87
2022/07/18 06:17:34;;;;;;;2.20;1.38;;;21.90;96.80;;;;;;13064748;22;20161;-87
2022/07/18 06:22:37;;;;;;;1.48;1.08;;;21.90;96.70;;;;;;13018194;22;20574;-88
2022/07/18 06:27:39;;;;;;;1.65;1.27;;;21.90;96.60;;;;;;13046556;22;20165;-87
2022/07/18 06:32:42;;;;;;;1.50;1.30;;;22.00;96.50;;;;;;13019157;22;20201;-87
2022/07/18 06:37:45;;;;;;;1.65;1.55;;;22.10;96.40;;;;;;13046197;22;20169;-87
2022/07/18 06:42:47;;;;;;;2.65;1.45;;;22.10;96.30;;;;;;13017972;22;20181;-87
2022/07/18 06:47:50;;;;;;;1.30;1.17;;;22.10;96.20;;;;;;13044339;22;20623;-87
2022/07/18 06:52:53;;;;;;;2.58;1.27;;;22.20;96.10;;;;;;13045530;22;20235;-87
2022/07/18 06:57:58;;;;;;;2.08;1.65;;;22.20;95.90;;;;;;13016899;22;20181;-88
2022/07/18 07:03:06;;;;;;;1.90;1.40;;;22.30;95.80;;;;;;13017416;22;20177;-87
2022/07/18 07:08:09;;;;;;;1.48;1.38;;;22.40;95.50;;;;;;12991758;22;20184;-88
2022/07/18 07:13:11;;;;;;;3.00;2.13;;;22.60;95.10;;;;;;12990969;22;20251;-88
2022/07/18 07:18:20;;;;;;;1.85;1.30;;;22.50;95.10;;;;;;13062495;22;20165;-88
2022/07/18 07:23:22;;;;;;;1.48;1.20;;;22.50;95.20;;;;;;13044812;22;20198;-87
2022/07/18 07:28:24;;;;;;;3.92;1.40;;;22.50;95.40;;;;;;13016553;22;20246;-87
2022/07/18 07:33:27;;;;;;;1.40;1.23;;;22.50;95.30;;;;;;13018816;22;20192;-87
2022/07/18 07:38:30;;;;;;;2.28;1.50;;;22.60;94.90;;;;;;13020643;22;20176;-87
2022/07/18 07:43:32;;;;;;;1.70;1.27;;;22.60;94.90;;;;;;13045244;22;20191;-87
2022/07/18 07:48:34;;;;;;;1.88;1.45;;;22.50;95.00;;;;;;13045007;22;20191;-87
2022/07/18 07:53:37;;;;;;;2.28;1.27;;;22.40;95.50;;;;;;13044902;22;20516;-87
2022/07/18 07:58:40;;;;;;;1.48;1.00;;;22.30;95.60;;;;;;13017645;22;20226;-87
2022/07/18 08:03:44;;;;;;;1.83;1.73;;;22.20;95.90;;;;;;13048901;22;20531;-87
2022/07/18 08:08:47;;;;;;;1.02;1.00;;;22.30;95.70;;;;;;13019967;22;20181;-87
2022/07/18 08:13:49;;;;;;;2.10;1.73;;;22.30;95.60;;;;;;13048857;22;20185;-87
2022/07/18 08:18:52;;;;;;;2.25;1.20;;;22.40;95.60;;;;;;13041075;22;20546;-87
2022/07/18 08:23:54;;;;;;;1.50;1.20;;;22.30;95.60;;;;;;13047471;22;20203;-88
2022/07/18 08:29:04;;;;;;;1.42;1.30;;;22.30;95.60;;;;;;13039716;22;20161;-87
2022/07/18 08:34:06;;;;;;;1.77;1.27;;;22.30;95.50;;;;;;13046554;22;20302;-87
2022/07/18 08:39:09;;;;;;;1.67;1.13;;;22.40;95.10;;;;;;13018702;22;20181;-87
2022/07/18 08:44:12;;;;;;;1.40;1.30;;;22.40;95.10;;;;;;13045742;22;20242;-89
2022/07/18 08:49:15;;;;;;;6.40;1.98;;;22.50;95.00;;;;;;13019413;22;20210;-88
2022/07/18 08:54:18;;;;;;;2.22;1.63;;;22.30;91.80;;;;;;13018737;22;20258;-89
2022/07/18 08:59:24;;;;;;;3.65;1.73;;;22.50;92.30;;;;;;13018648;22;20177;-89
2022/07/18 09:04:38;;;;;;;3.28;1.90;;;22.60;92.90;;;;;;13024686;22;20173;-89
2022/07/18 09:09:53;;;;;;;10.23;2.25;;;22.60;90.70;;;;;;13018313;22;20181;-89
2022/07/18 09:14:56;;;;;;;6.90;1.95;;;22.60;90.00;;;;;;12993326;22;20671;-89
2022/07/18 09:20:08;;;;;;;4.60;2.28;;;22.80;89.90;;;;;;13017205;22;20181;-89
2022/07/18 09:25:17;;;;;;;4.85;2.05;;;22.80;88.30;;;;;;13017705;22;20172;-88
2022/07/18 09:30:28;;;;;;;4.22;2.00;;;22.90;87.00;;;;;;13018201;22;20525;-89
2022/07/18 09:35:36;;;;;;;2.25;1.65;;;23.20;89.30;;;;;;13061063;22;20173;-89
2022/07/18 09:40:41;;;;;;;1.73;1.63;;;23.20;86.40;;;;;;13064176;22;20195;-89
2022/07/18 09:45:50;;;;;;;4.53;2.00;;;23.40;89.30;;;;;;13017326;22;20211;-88
2022/07/18 09:51:01;;;;;;;2.58;1.90;;;23.10;89.40;;;;;;13045667;22;20185;-88
2022/07/18 09:56:22;;;;;;;3.03;1.95;;;23.20;88.70;;;;;;13018329;22;20177;-89
2022/07/18 10:01:26;;;;;;;3.72;2.10;;;23.60;86.50;;;;;;13064107;22;20168;-90
2022/07/18 10:06:29;;;;;;;13.40;2.00;;;23.50;87.40;;;;;;13015354;22;20526;-90
2022/07/18 10:11:32;;;;;;;3.38;2.22;;;23.40;83.80;;;;;;13015801;22;20201;-89
2022/07/18 10:16:36;;;;;;;1.80;1.70;;;23.60;85.90;;;;;;13016081;22;20169;-90
2022/07/18 10:21:41;;;;;;;4.82;1.98;;;23.30;86.90;;;;;;13045049;22;20199;-89
2022/07/18 10:26:44;;;;;;;2.22;2.03;;;23.20;85.40;;;;;;13018669;22;20222;-89
2022/07/18 10:32:13;;;;;;;2.53;1.75;;;23.40;87.10;;;;;;13018420;22;20246;-90
2022/07/18 10:37:24;;;;;;;4.53;2.10;;;23.40;87.50;;;;;;12988826;22;20242;-90
2022/07/18 10:42:30;;;;;;;3.40;1.67;;;23.30;84.00;;;;;;13017434;22;20721;-89
2022/07/18 10:47:33;;;;;;;4.95;1.70;;;23.40;86.00;;;;;;13017948;22;20203;-90
2022/07/18 10:52:36;;;;;;;3.85;2.17;;;23.30;87.40;;;;;;13017351;22;20197;-90
2022/07/18 10:57:41;;;;;;;5.72;2.00;;;23.40;84.90;;;;;;13017422;22;20178;-90
2022/07/18 11:03:02;;;;;;;3.92;1.95;;;23.80;87.00;;;;;;13045187;22;20168;-90
2022/07/18 11:08:04;;;;;;;3.58;2.30;;;23.70;83.90;;;;;;13017099;22;20184;-90
2022/07/18 11:13:35;;;;;;;2.33;2.05;;;23.40;84.80;;;;;;13016332;22;20261;-90
2022/07/18 11:18:44;;;;;;;7.18;2.67;;;23.40;85.60;;;;;;13017426;22;20200;-90
2022/07/18 11:23:49;;;;;;;5.60;2.20;;;23.60;84.40;;;;;;13017389;22;20230;-90
2022/07/18 11:29:04;;;;;;;3.55;1.75;;;23.70;85.30;;;;;;13036184;22;20497;-91
2022/07/18 11:34:07;;;;;;;5.53;1.80;;;23.80;82.80;;;;;;12991145;22;20200;-89
2022/07/18 11:39:10;;;;;;;2.35;1.65;;;23.50;84.90;;;;;;13018450;22;20177;-90
2022/07/18 11:44:26;;;;;;;3.42;2.20;;;23.70;85.20;;;;;;13063523;22;20230;-90
2022/07/18 11:49:29;;;;;;;2.58;2.38;;;23.50;87.10;;;;;;13018059;22;20867;-91
2022/07/18 11:54:32;;;;;;;6.40;2.47;;;23.20;88.50;;;;;;13016807;22;20586;-90
2022/07/18 11:59:44;;;;;;;4.20;2.72;;;23.50;87.70;;;;;;13045698;22;20195;-91
2022/07/18 12:04:46;;;;;;;8.73;2.58;;;23.40;83.90;;;;;;13016681;22;20496;-90
2022/07/18 12:09:51;;;;;;;6.20;2.30;;;23.80;87.90;;;;;;13018911;22;20177;-93
2022/07/18 12:14:59;;;;;;;4.53;2.40;;;24.70;77.50;;;;;;13019875;22;20197;-92
2022/07/18 12:20:10;;;;;;;7.20;2.20;;;25.30;85.40;;;;;;12994958;22;20181;-93
2022/07/18 12:25:13;;;;;;;4.38;2.10;;;25.80;87.60;;;;;;13018003;22;20181;-94
2022/07/18 12:30:19;;;;;;;6.65;2.42;;;26.10;88.40;;;;;;13046552;22;20247;-94
2022/07/18 12:35:28;;;;;;;4.40;2.17;;;26.30;88.60;;;;;;13037785;22;20184;-93
2022/07/18 12:40:54;;;;;;;2.78;1.90;;;26.40;89.70;;;;;;13028214;22;20165;-92
2022/07/18 12:45:57;;;;;;;3.05;1.98;;;26.40;90.60;;;;;;13037004;22;20230;-93
2022/07/18 12:51:03;;;;;;;3.80;2.80;;;;;;;;;;13020303;22;20169;-93
2022/07/18 12:56:06;;;;;;;1.95;1.45;;;26.50;88.80;;;;;;12998005;22;20169;-93
2022/07/18 13:01:11;;;;;;;1.70;1.33;;;26.50;91.70;;;;;;13020882;22;20211;-94
2022/07/18 13:06:14;;;;;;;2.88;1.50;;;26.60;90.20;;;;;;13022443;22;20181;-93
2022/07/18 13:11:22;;;;;;;3.10;1.40;;;26.50;83.30;;;;;;13021132;22;20227;-93
2022/07/18 13:16:31;;;;;;;2.65;2.15;;;26.60;93.00;;;;;;13040499;22;20230;-93
2022/07/18 13:21:34;;;;;;;2.90;1.80;;;26.60;92.60;;;;;;13019836;22;20181;-92
2022/07/18 13:26:37;;;;;;;2.80;1.70;;;26.50;93.10;;;;;;13022288;22;20169;-94
2022/07/18 13:31:40;;;;;;;1.80;1.38;;;26.50;94.30;;;;;;13021516;22;20205;-92
2022/07/18 13:36:42;;;;;;;1.50;1.40;;;26.50;94.00;;;;;;13021654;22;20181;-94
2022/07/18 13:41:46;;;;;;;3.65;1.77;;;26.50;92.90;;;;;;13049391;22;20169;-94
2022/07/18 13:46:48;;;;;;;3.88;1.60;;;26.50;93.80;;;;;;13023637;22;20164;-93
2022/07/18 13:51:51;;;;;;;1.70;1.35;;;26.50;94.30;;;;;;13021151;22;20193;-93
2022/07/18 13:56:53;;;;;;;2.58;1.90;;;26.40;94.60;;;;;;13021304;22;20177;-94
2022/07/18 14:01:56;;;;;;;1.58;1.30;;;26.40;94.20;;;;;;13023279;22;20230;-93
2022/07/18 14:06:59;;;;;;;2.83;1.58;;;26.40;95.30;;;;;;13025817;22;20254;-93
2022/07/18 14:12:01;;;;;;;3.13;1.30;;;26.40;94.80;;;;;;13048749;22;20185;-93
2022/07/18 14:17:04;;;;;;;3.22;1.08;;;26.40;93.40;;;;;;13021737;22;20161;-93
2022/07/18 14:22:09;;;;;;;4.85;1.95;;;26.40;95.10;;;;;;13022151;22;20219;-92
2022/07/18 14:27:12;;;;;;;1.58;1.40;;;26.40;87.70;;;;;;13018453;22;20230;-93
2022/07/18 14:32:15;;;;;;;25.33;3.22;;;26.50;94.30;;;;;;13019366;22;20197;-90
2022/07/18 14:37:17;;;;;;;5.03;2.40;;;26.50;82.90;;;;;;13016844;22;20185;-91
2022/07/18 14:42:20;;;;;;;2.38;1.55;;;26.60;82.40;;;;;;13045503;22;20168;-91
2022/07/18 14:47:23;;;;;;;3.15;1.58;;;26.60;93.60;;;;;;12992881;22;20227;-89
2022/07/18 14:52:26;;;;;;;4.80;1.40;;;26.50;80.40;;;;;;13017592;22;20659;-90
2022/07/18 14:57:28;;;;;;;16.92;3.55;;;26.40;93.30;;;;;;13045325;22;20211;-87
2022/07/18 15:02:31;;;;;;;24.75;3.30;;;26.30;76.60;;;;;;13016667;22;20177;-89
2022/07/18 15:07:34;;;;;;;2.08;1.85;;;26.30;74.10;;;;;;13048089;22;20173;-89
2022/07/18 15:12:38;;;;;;;15.75;2.70;;;26.40;70.00;;;;;;13044831;22;20234;-89
2022/07/18 15:17:41;;;;;;;2.70;1.92;;;26.70;70.10;;;;;;13016635;22;20246;-90
2022/07/18 15:22:44;;;;;;;6.88;2.40;;;26.40;70.30;;;;;;13014817;22;20180;-89
2022/07/18 15:27:47;;;;;;;2.10;1.90;;;26.30;75.20;;;;;;13040894;22;20234;-89
2022/07/18 15:32:49;;;;;;;5.65;1.95;;;25.90;71.20;;;;;;13042626;22;20258;-89
2022/07/18 15:37:52;;;;;;;4.93;2.58;;;26.00;75.50;;;;;;13013720;22;20181;-89
2022/07/18 15:42:58;;;;;;;4.90;2.72;;;26.00;76.30;;;;;;13014600;22;20184;-89
2022/07/18 15:48:01;;;;;;;3.60;2.03;;;26.00;74.70;;;;;;13041207;22;20169;-90
2022/07/18 15:53:03;;;;;;;5.30;2.47;;;25.90;78.20;;;;;;13040938;22;20226;-89
2022/07/18 15:58:08;;;;;;;5.90;2.58;;;25.90;69.80;;;;;;13031773;22;20165;-88
2022/07/18 16:03:10;;;;;;;2.78;2.13;;;25.80;69.60;;;;;;13012551;22;20223;-89
2022/07/18 16:08:13;;;;;;;2.90;2.60;;;25.60;71.40;;;;;;13041627;22;20173;-89
2022/07/18 16:13:16;;;;;;;4.13;2.30;;;25.60;73.30;;;;;;13041895;22;20184;-89
2022/07/18 16:18:18;;;;;;;3.13;2.13;;;25.70;82.80;;;;;;13040691;22;20207;-89
2022/07/18 16:23:21;;;;;;;6.32;2.63;;;25.50;73.00;;;;;;13043707;22;20173;-90
2022/07/18 16:28:24;;;;;;;4.45;2.53;;;25.50;72.70;;;;;;13016643;22;20181;-89
2022/07/18 16:33:26;;;;;;;4.32;2.47;;;25.20;71.00;;;;;;13044155;22;20541;-89
2022/07/18 16:38:29;;;;;;;6.68;2.47;;;25.10;72.30;;;;;;13017385;22;20508;-89
2022/07/18 16:43:31;;;;;;;5.15;2.42;;;25.00;74.90;;;;;;13018455;22;20165;-89
2022/07/18 16:48:34;;;;;;;9.38;2.50;;;25.00;76.10;;;;;;13061292;22;20169;-89
2022/07/18 16:53:38;;;;;;;8.07;2.40;;;24.90;74.90;;;;;;13021080;22;20729;-89
2022/07/18 16:58:41;;;;;;;5.90;2.78;;;24.80;78.80;;;;;;13016815;22;20705;-88
2022/07/18 17:03:43;;;;;;;6.60;3.40;;;24.70;86.30;;;;;;13062759;22;20169;-89
2022/07/18 17:08:46;;;;;;;3.60;2.05;;;24.60;83.00;;;;;;13015617;22;20177;-89
2022/07/18 17:13:49;;;;;;;6.85;3.95;;;24.60;91.90;;;;;;13045329;22;20256;-89
2022/07/18 17:18:52;;;;;;;6.20;2.97;;;24.40;81.10;;;;;;13016213;22;20177;-89
2022/07/18 17:23:55;;;;;;;6.57;2.40;;;24.30;82.20;;;;;;13016158;22;20181;-89
2022/07/18 17:28:58;;;;;;;3.97;2.08;;;24.10;91.10;;;;;;13017497;22;20176;-89
2022/07/18 17:34:01;;;;;;;3.85;2.17;;;24.10;93.40;;;;;;13044654;22;20193;-89
2022/07/18 17:39:04;;;;;;;4.35;1.80;;;24.20;95.10;;;;;;12989299;22;20177;-90
2022/07/18 17:44:07;;;;;;;4.90;2.42;;;24.10;93.90;;;;;;13017496;22;20185;-89
2022/07/18 17:49:10;;;;;;;5.05;2.95;;;23.90;94.00;;;;;;13017699;22;20238;-91
2022/07/18 17:54:14;;;;;;;5.57;2.03;;;23.80;95.20;;;;;;13022256;22;20663;-87
2022/07/18 17:59:17;;;;;;;4.82;2.40;;;23.70;94.60;;;;;;13019589;22;20207;-86
2022/07/18 18:04:19;;;;;;;9.02;3.80;;;23.70;95.20;;;;;;13046562;22;20169;-88
2022/07/18 18:09:22;;;;;;;10.27;4.78;;;23.60;99.50;;;;;;13019376;22;20169;-88
2022/07/18 18:14:25;;;;;;;9.98;4.60;;;23.70;99.90;;;;;;13017382;22;20201;-90
2022/07/18 18:19:33;;;;;;;2.92;2.05;;;23.80;99.90;;;;;;13046079;22;20165;-86
2022/07/18 18:24:35;;;;;;;3.65;2.08;;;23.60;96.10;;;;;;13018097;22;20180;-85
2022/07/18 18:29:38;;;;;;;18.70;4.35;;;23.60;97.40;;;;;;13016962;22;20242;-88
2022/07/18 18:34:45;;;;;;;5.22;2.15;;;23.60;99.80;;;;;;13019423;22;20603;-91
2022/07/18 18:39:48;;;;;;;6.90;2.40;;;23.30;98.30;;;;;;12993468;22;20177;-86
2022/07/18 18:44:51;;;;;;;5.07;2.17;;;23.50;99.90;;;;;;13047814;22;20172;-92
2022/07/18 18:49:53;;;;;;;2.28;1.88;;;23.20;99.90;;;;;;13019308;22;20488;-91
2022/07/18 18:54:56;;;;;;;3.25;2.30;;;22.90;99.90;;;;;;13035765;22;20189;-89
2022/07/18 18:59:59;;;;;;;7.03;3.15;;;22.90;99.90;;;;;;13018254;22;20191;-92
2022/07/18 19:05:01;;;;;;;7.55;2.75;;;23.00;99.90;;;;;;13017692;22;20185;-90
2022/07/18 19:10:04;;;;;;;5.97;2.70;;;23.10;99.90;;;;;;13018326;22;20180;-93
2022/07/18 19:15:08;;;;;;;5.25;2.60;;;23.20;99.90;;;;;;13019420;22;20197;-92
2022/07/18 19:20:11;;;;;;;3.15;2.45;;;23.20;99.90;;;;;;12993898;22;20207;-91
2022/07/18 19:25:13;;;;;;;3.33;2.42;;;23.30;99.90;;;;;;13037710;22;20165;-94
2022/07/18 19:30:16;;;;;;;5.95;3.50;;;23.30;99.90;;;;;;13046116;22;20286;-92
2022/07/18 19:35:19;;;;;;;9.63;2.42;;;23.20;99.90;;;;;;13018985;22;20201;-93
2022/07/18 19:40:21;;;;;;;8.30;2.05;;;23.00;99.90;;;;;;13051291;22;20165;-87
2022/07/18 19:45:24;;;;;;;8.85;3.53;;;22.90;99.90;;;;;;13034387;22;20197;-93
2022/07/18 19:50:27;;;;;;;15.53;4.53;;;23.30;99.90;;;;;;13087807;22;20385;-95
2022/07/18 19:55:32;;;;;;;8.25;3.70;;;23.50;99.90;;;;;;13055303;22;20435;-96
2022/07/18 20:00:37;;;;;;;7.78;3.45;;;23.30;99.90;;;;;;13080541;22;20207;-79
2022/07/18 20:05:39;;;;;;;7.97;3.53;;;22.90;99.90;;;;;;13083977;22;20180;-78
2022/07/18 20:10:42;;;;;;;15.52;3.42;;;22.60;99.90;;;;;;13059175;22;20206;-83
2022/07/18 20:15:45;;;;;;;8.70;3.95;;;22.30;99.90;;;;;;13085211;22;20234;-80
2022/07/18 20:20:47;;;;;;;14.63;3.75;;;22.20;99.90;;;;;;13084858;22;20164;-77
2022/07/18 20:25:50;;;;;;;7.93;2.90;;;22.30;99.90;;;;;;13112428;22;20214;-78
2022/07/18 20:30:52;;;;;;;10.98;3.65;;;22.30;99.90;;;;;;13112047;22;20799;-80
2022/07/18 20:35:55;;;;;;;7.40;3.05;;;22.10;99.90;;;;;;13110412;22;20211;-78
2022/07/18 20:40:57;;;;;;;11.63;3.53;;;22.20;99.90;;;;;;13083341;22;20276;-78
2022/07/18 20:46:00;;;;;;;8.48;3.58;;;22.20;99.90;;;;;;13084354;22;20277;-78
2022/07/18 20:51:03;;;;;;;5.47;3.03;;;22.30;99.90;;;;;;13082995;22;20188;-79
2022/07/18 20:56:06;;;;;;;6.47;3.25;;;22.60;99.90;;;;;;13058011;22;20196;-79
2022/07/18 21:01:09;;;;;;;5.57;2.78;;;22.90;99.90;;;;;;13119733;22;20223;-79
2022/07/18 21:06:12;;;;;;;6.50;3.00;;;23.00;99.90;;;;;;13111140;22;20233;-79
2022/07/18 21:11:14;;;;;;;5.60;2.60;;;23.00;99.90;;;;;;13128958;22;20194;-79
2022/07/18 21:16:19;;;;;;;8.50;3.08;;;23.00;99.90;;;;;;13083656;22;20324;-79
2022/07/18 21:21:22;;;;;;;4.70;3.22;;;23.10;99.90;;;;;;13082628;22;20249;-79
2022/07/18 21:26:24;;;;;;;4.30;2.78;;;23.10;99.90;;;;;;13083736;22;20164;-79
2022/07/18 21:31:27;;;;;;;7.03;2.40;;;23.10;99.90;;;;;;13081041;22;20180;-78
2022/07/18 21:36:30;;;;;;;7.38;2.88;;;23.10;99.90;;;;;;13109860;22;20500;-79
2022/07/18 21:41:33;;;;;;;7.88;3.17;;;23.10;99.90;;;;;;13082150;22;20214;-78
2022/07/18 21:46:36;;;;;;;9.13;3.00;;;23.10;99.90;;;;;;13108096;22;20164;-78
2022/07/18 21:51:39;;;;;;;6.53;3.00;;;23.00;99.90;;;;;;13109402;22;20242;-79
2022/07/18 21:56:42;;;;;;;5.35;2.85;;;23.00;99.90;;;;;;13078734;22;20196;-79
2022/07/18 22:01:45;;;;;;;3.35;2.35;;;23.00;99.90;;;;;;13106417;22;20590;-79
2022/07/18 22:06:48;;;;;;;4.25;2.28;;;23.00;99.90;;;;;;13101049;22;20169;-80
2022/07/18 22:11:50;;;;;;;3.40;2.22;;;23.00;99.90;;;;;;13054997;22;20180;-78
2022/07/18 22:16:53;;;;;;;3.85;2.35;;;23.00;99.90;;;;;;13075786;22;20196;-78
2022/07/18 22:21:55;;;;;;;5.13;2.22;;;22.90;99.90;;;;;;13100662;22;20508;-80
2022/07/18 22:27:01;;;;;;;3.15;2.28;;;23.00;99.90;;;;;;13106615;22;20164;-79
2022/07/18 22:32:04;;;;;;;2.40;2.20;;;23.00;99.90;;;;;;13106269;22;20576;-79
2022/07/18 22:37:08;;;;;;;4.28;2.05;;;23.00;99.90;;;;;;13080250;22;20184;-79
2022/07/18 22:42:12;;;;;;;3.15;2.30;;;23.00;99.90;;;;;;13097402;22;20168;-78
2022/07/18 22:47:15;;;;;;;3.65;2.58;;;23.00;99.90;;;;;;13075530;22;20169;-79
2022/07/18 22:52:18;;;;;;;5.63;2.67;;;22.90;99.90;;;;;;13109582;22;20176;-79
2022/07/18 22:57:20;;;;;;;3.53;2.55;;;22.90;99.90;;;;;;13110297;22;20237;-79
2022/07/18 23:02:23;;;;;;;4.32;2.33;;;22.90;99.90;;;;;;13109058;22;20246;-78
2022/07/18 23:07:26;;;;;;;3.47;2.40;;;22.90;99.90;;;;;;13081948;22;20194;-79
2022/07/18 23:12:28;;;;;;;4.93;2.65;;;22.90;99.90;;;;;;13107602;22;20484;-79
2022/07/18 23:17:31;;;;;;;5.30;2.70;;;22.90;99.90;;;;;;13081986;22;20188;-79
2022/07/18 23:22:34;;;;;;;2.65;2.10;;;22.90;99.90;;;;;;13054916;22;20235;-79
2022/07/18 23:27:38;;;;;;;4.22;2.17;;;22.90;99.90;;;;;;13108804;22;20479;-79
2022/07/18 23:32:40;;;;;;;2.72;2.13;;;22.90;99.90;;;;;;13080761;22;20549;-79
2022/07/18 23:37:43;;;;;;;4.88;2.97;;;22.80;99.90;;;;;;13053347;22;20674;-79
2022/07/18 23:42:46;;;;;;;2.92;2.13;;;22.80;99.90;;;;;;13107834;22;20592;-79
2022/07/18 23:47:48;;;;;;;3.67;2.30;;;22.80;99.90;;;;;;13108345;22;20170;-79
2022/07/18 23:52:51;;;;;;;4.15;2.53;;;22.80;99.90;;;;;;13081065;22;20559;-78
2022/07/18 23:57:53;;;;;;;5.45;2.90;;;22.80;99.90;;;;;;13125295;22;20520;-78
